Lowlands Sky — 3FJW9 — position and weather

sailwx.info

Track history (hours):
 
Tides and Currents Weather Stations Pressure Air Temp Water Temp Dewpoint Dewpoint Depression Visibility Wind Speed Wind Dir Waves Ship Positions

Lowlands Sky

Last reported at 2015-Mar-26 21:22 UTC. Time now 2015-Mar-31 11:23 UTC.
Position S 24°08' W 046°23'.

Length 177 m; draft 10.1 m.

Type: Cargo ship. MMSI: 370830000.

Date/timePositionNaut miles runAvg speedWind from/ knotsBaromVisibWave heightAir tempDewpointWater temp
2015-Mar-26 21:22S 24°08' W 046°23'810.2
2015-Mar-26 20:33S 23°60' W 046°20'4 3.4
2015-Mar-26 19:31S 23°56' W 046°19'0 0.0
2015-Mar-26 18:31S 23°56' W 046°19'0 0.0
2015-Mar-26 17:31S 23°56' W 046°19'0 0.0
2015-Mar-26 16:28S 23°56' W 046°19'0 0.0
2015-Mar-26 15:31S 23°56' W 046°19'0 0.0
2015-Mar-26 14:31S 23°56' W 046°19'0 0.0
2015-Mar-26 13:19S 23°56' W 046°19'0 0.0
2015-Mar-26 12:25S 23°56' W 046°19'0 0.0
2015-Mar-26 11:31S 23°56' W 046°19'0 0.0
2015-Mar-26 10:31S 23°56' W 046°19'0 0.0
2015-Mar-26 09:31S 23°56' W 046°19'0 0.0
2015-Mar-26 08:22S 23°56' W 046°19'0 0.0
2015-Mar-26 07:31S 23°56' W 046°19'0 0.0
2015-Mar-26 06:31S 23°56' W 046°19'0 0.0
2015-Mar-26 05:13S 23°56' W 046°19'0 0.0
2015-Mar-26 04:25S 23°56' W 046°19'0 0.0
2015-Mar-26 03:31S 23°56' W 046°19'0 0.0
2015-Mar-26 02:25S 23°56' W 046°19'0 0.0
2015-Mar-26 01:31S 23°56' W 046°19'0 0.0
2015-Mar-26 00:28S 23°56' W 046°19'0 0.0
2015-Mar-25 23:31S 23°56' W 046°19'0 0.0
2015-Mar-25 22:31S 23°56' W 046°19'0 0.0
2015-Mar-25 21:28S 23°56' W 046°19'0 0.0
2015-Mar-25 20:22S 23°56' W 046°19'0 0.0
2015-Mar-25 19:31S 23°56' W 046°19'0 0.0
2015-Mar-25 18:31S 23°56' W 046°19'0 0.0
2015-Mar-25 17:16S 23°56' W 046°19'0 0.0
2015-Mar-25 16:25S 23°56' W 046°19'0 0.0
2015-Mar-25 15:31S 23°56' W 046°19'3 3.3
2015-Mar-25 14:33S 23°60' W 046°18'4 4.0
2015-Mar-25 13:33S 24°03' W 046°20'7 6.2
2015-Mar-25 12:30S 24°06' W 046°14'0 0.0
2015-Mar-25 08:31S 24°06' W 046°14'0 0.1
2015-Mar-25 06:25S 24°05' W 046°14'0 0.0
2015-Mar-25 05:25S 24°05' W 046°14'0 0.0
2015-Mar-24 16:07S 24°05' W 046°14'  
2015-Mar-20 11:06S 24°06' W 046°14'0 0.0
2015-Mar-20 10:12S 24°06' W 046°14'0 0.0
2015-Mar-20 09:03S 24°06' W 046°14'0 0.0
2015-Mar-20 04:18S 24°05' W 046°14'0 0.0
2015-Mar-20 03:30S 24°05' W 046°14'0 0.0
2015-Mar-20 02:30S 24°05' W 046°14'0 0.1
2015-Mar-20 01:33S 24°05' W 046°14'7 5.6
2015-Mar-20 00:21S 24°02' W 046°20'0 0.1
2015-Mar-19 23:33S 24°02' W 046°21'0 0.0
2015-Mar-19 22:33S 24°02' W 046°21'0 0.1
2015-Mar-19 21:33S 24°02' W 046°20'0 0.1
2015-Mar-19 20:33S 24°02' W 046°21'0 0.1
2015-Mar-19 19:27S 24°02' W 046°21'0 0.4
2015-Mar-19 18:33S 24°02' W 046°20'6 6.5
2015-Mar-19 17:33S 24°08' W 046°23'  
Track history (hours):
 
Tides and Currents Weather Stations Pressure Air Temp Water Temp Dewpoint Dewpoint Depression Visibility Wind Speed Wind Dir Waves Ship Positions

Lowlands Sky

Last reported at 2015-Mar-26 21:22 UTC. Time now 2015-Mar-31 11:23 UTC.
Position S 24°08' W 046°23'.

Length 177 m; draft 10.1 m.

Type: Cargo ship. MMSI: 370830000.

Date/timePositionNaut miles runAvg speedWind from/ knotsBaromVisibWave heightAir tempDewpointWater temp
2015-Mar-26 21:22S 24°08' W 046°23'810.2
2015-Mar-26 20:33S 23°60' W 046°20'4 3.4
2015-Mar-26 19:31S 23°56' W 046°19'0 0.0
2015-Mar-26 18:31S 23°56' W 046°19'0 0.0
2015-Mar-26 17:31S 23°56' W 046°19'0 0.0
2015-Mar-26 16:28S 23°56' W 046°19'0 0.0
2015-Mar-26 15:31S 23°56' W 046°19'0 0.0
2015-Mar-26 14:31S 23°56' W 046°19'0 0.0
2015-Mar-26 13:19S 23°56' W 046°19'0 0.0
2015-Mar-26 12:25S 23°56' W 046°19'0 0.0
2015-Mar-26 11:31S 23°56' W 046°19'0 0.0
2015-Mar-26 10:31S 23°56' W 046°19'0 0.0
2015-Mar-26 09:31S 23°56' W 046°19'0 0.0
2015-Mar-26 08:22S 23°56' W 046°19'0 0.0
2015-Mar-26 07:31S 23°56' W 046°19'0 0.0
2015-Mar-26 06:31S 23°56' W 046°19'0 0.0
2015-Mar-26 05:13S 23°56' W 046°19'0 0.0
2015-Mar-26 04:25S 23°56' W 046°19'0 0.0
2015-Mar-26 03:31S 23°56' W 046°19'0 0.0
2015-Mar-26 02:25S 23°56' W 046°19'0 0.0
2015-Mar-26 01:31S 23°56' W 046°19'0 0.0
2015-Mar-26 00:28S 23°56' W 046°19'0 0.0
2015-Mar-25 23:31S 23°56' W 046°19'0 0.0
2015-Mar-25 22:31S 23°56' W 046°19'0 0.0
2015-Mar-25 21:28S 23°56' W 046°19'0 0.0
2015-Mar-25 20:22S 23°56' W 046°19'0 0.0
2015-Mar-25 19:31S 23°56' W 046°19'0 0.0
2015-Mar-25 18:31S 23°56' W 046°19'0 0.0
2015-Mar-25 17:16S 23°56' W 046°19'0 0.0
2015-Mar-25 16:25S 23°56' W 046°19'0 0.0
2015-Mar-25 15:31S 23°56' W 046°19'3 3.3
2015-Mar-25 14:33S 23°60' W 046°18'4 4.0
2015-Mar-25 13:33S 24°03' W 046°20'7 6.2
2015-Mar-25 12:30S 24°06' W 046°14'0 0.0
2015-Mar-25 08:31S 24°06' W 046°14'0 0.1
2015-Mar-25 06:25S 24°05' W 046°14'0 0.0
2015-Mar-25 05:25S 24°05' W 046°14'0 0.0
2015-Mar-24 16:07S 24°05' W 046°14'  
2015-Mar-20 11:06S 24°06' W 046°14'0 0.0
2015-Mar-20 10:12S 24°06' W 046°14'0 0.0
2015-Mar-20 09:03S 24°06' W 046°14'0 0.0
2015-Mar-20 04:18S 24°05' W 046°14'0 0.0
2015-Mar-20 03:30S 24°05' W 046°14'0 0.0
2015-Mar-20 02:30S 24°05' W 046°14'0 0.1
2015-Mar-20 01:33S 24°05' W 046°14'7 5.6
2015-Mar-20 00:21S 24°02' W 046°20'0 0.1
2015-Mar-19 23:33S 24°02' W 046°21'0 0.0
2015-Mar-19 22:33S 24°02' W 046°21'0 0.1
2015-Mar-19 21:33S 24°02' W 046°20'0 0.1
2015-Mar-19 20:33S 24°02' W 046°21'0 0.1
2015-Mar-19 19:27S 24°02' W 046°21'0 0.4
2015-Mar-19 18:33S 24°02' W 046°20'6 6.5
2015-Mar-19 17:33S 24°08' W 046°23'  

Dump ship's entire track history